createdAt,value
2018-09-10T00:00:11.215Z,56.15
2018-09-10T00:01:11.208Z,55.47
2018-09-10T00:02:11.200Z,56.08
2018-09-10T00:03:11.177Z,56.38
2018-09-10T00:04:11.196Z,56.58
2018-09-10T00:05:11.157Z,56.28
2018-09-10T00:06:11.181Z,56.48
2018-09-10T00:07:11.137Z,56.88
2018-09-10T00:08:11.127Z,56.58
2018-09-10T00:09:11.150Z,56.78
2018-09-10T00:10:11.116Z,56.48
2018-09-10T00:11:11.092Z,56.18
2018-09-10T00:12:11.081Z,56.18
2018-09-10T00:13:11.074Z,56.08
2018-09-10T00:14:11.083Z,55.58
2018-09-10T00:15:11.058Z,55.78
2018-09-10T00:16:11.038Z,56.28
2018-09-10T00:17:11.026Z,56.58
2018-09-10T00:18:11.013Z,56.28
2018-09-10T00:19:11.027Z,56.28
2018-09-10T00:20:11.005Z,55.68
2018-09-10T00:21:10.988Z,56.28
2018-09-10T00:22:10.975Z,55.88
2018-09-10T00:23:10.959Z,56.21
2018-09-10T00:24:10.968Z,56.21
2018-09-10T00:25:10.949Z,56.61
2018-09-10T00:26:10.929Z,57.01
2018-09-10T00:27:10.919Z,57.41
2018-09-10T00:28:10.907Z,57.01
2018-09-10T00:29:10.920Z,56.91
2018-09-10T00:30:10.907Z,56.81
2018-09-10T00:31:10.883Z,57.01
2018-09-10T00:32:10.864Z,56.71
2018-09-10T00:33:10.853Z,57.21
2018-09-10T00:34:10.857Z,57.51
2018-09-10T00:35:10.845Z,56.91
2018-09-10T00:36:10.838Z,57.21
2018-09-10T00:37:10.824Z,56.38
2018-09-10T00:38:10.808Z,56.48
2018-09-10T00:39:10.813Z,56.48
2018-09-10T00:40:10.775Z,55.98
2018-09-10T00:41:10.769Z,55.08
2018-09-10T00:42:10.776Z,55.78
2018-09-10T00:43:10.744Z,55.38
2018-09-10T00:44:10.762Z,55.58
2018-09-10T00:45:10.718Z,55.98
2018-09-10T00:46:10.709Z,55.38
2018-09-10T00:47:10.703Z,55.68
2018-09-10T00:48:10.692Z,56.08
2018-09-10T00:49:10.682Z,55.88
2018-09-10T00:50:10.687Z,56.18
2018-09-10T00:51:10.658Z,55.28
2018-09-10T00:52:10.649Z,56.08
2018-09-10T00:53:10.639Z,55.68
2018-09-10T00:54:10.639Z,55.47
2018-09-10T00:55:10.634Z,55.98
2018-09-10T00:56:10.606Z,56.26
2018-09-10T00:57:10.590Z,55.75
2018-09-10T00:58:10.576Z,55.35
2018-09-10T00:59:10.569Z,55.45
2018-09-10T01:00:10.576Z,55.25
2018-09-10T01:01:10.546Z,55.35
2018-09-10T01:02:10.534Z,55.63
2018-09-10T01:03:10.522Z,54.72
2018-09-10T01:04:10.519Z,55.22
2018-09-10T01:05:10.526Z,55.13
2018-09-10T01:06:10.492Z,54.02
2018-09-10T01:07:10.481Z,54.25
2018-09-10T01:08:10.467Z,54.35
2018-09-10T01:09:10.457Z,54.05
2018-09-10T01:10:10.466Z,54.95
2018-09-10T01:11:10.442Z,55.28
2018-09-10T01:12:10.424Z,54.47
2018-09-10T01:13:10.418Z,55.47
2018-09-10T01:14:10.413Z,55.28
2018-09-10T01:15:10.415Z,55.91
2018-09-10T01:16:10.386Z,55.71
2018-09-10T01:17:10.374Z,56.51
2018-09-10T01:18:10.359Z,56.41
2018-09-10T01:19:10.349Z,56.03
2018-09-10T01:20:10.354Z,56.23
2018-09-10T01:21:10.328Z,56.03
2018-09-10T01:22:10.318Z,57.26
2018-09-10T01:23:10.316Z,56.63
2018-09-10T01:24:10.295Z,56.43
2018-09-10T01:25:10.299Z,56.54
2018-09-10T01:26:10.276Z,56.84
2018-09-10T01:27:10.261Z,56.54
2018-09-10T01:28:10.253Z,56.66
2018-09-10T01:29:10.260Z,56.56
2018-09-10T01:30:10.256Z,57.46
2018-09-10T01:31:10.217Z,56.46
2018-09-10T01:32:10.223Z,57.17
2018-09-10T01:33:10.195Z,57.46
2018-09-10T01:34:10.200Z,56.86
2018-09-10T01:35:10.190Z,57.57
2018-09-10T01:36:10.160Z,57.26
2018-09-10T01:37:10.162Z,57.46
2018-09-10T01:38:10.170Z,56.66
2018-09-10T01:39:10.149Z,56.66
2018-09-10T01:40:10.143Z,57.67
2018-09-10T01:41:10.113Z,57.17
2018-09-10T01:42:10.097Z,57.70
2018-09-10T01:43:10.085Z,57.37
2018-09-10T01:44:10.074Z,57.57
2018-09-10T01:45:10.082Z,56.76
2018-09-10T01:46:10.074Z,56.86
2018-09-10T01:47:10.045Z,57.06
2018-09-10T01:48:10.035Z,56.49
2018-09-10T01:49:10.021Z,57.50
2018-09-10T01:50:10.024Z,56.99
2018-09-10T01:51:10.013Z,57.29
2018-09-10T01:52:10.004Z,57.09
2018-09-10T01:53:09.974Z,57.50
2018-09-10T01:54:09.965Z,57.39
2018-09-10T01:55:09.971Z,57.22
2018-09-10T01:56:09.952Z,57.82
2018-09-10T01:57:09.935Z,57.82
2018-09-10T01:58:09.927Z,57.72
2018-09-10T01:59:09.909Z,57.79
2018-09-10T02:00:09.915Z,58.00
2018-09-10T02:01:09.891Z,57.42
2018-09-10T02:02:09.889Z,57.92
2018-09-10T02:03:09.873Z,57.50
2018-09-10T02:04:09.858Z,57.42
2018-09-10T02:05:09.875Z,57.90
2018-09-10T02:06:09.836Z,57.50
2018-09-10T02:07:09.864Z,57.59
2018-09-10T02:08:09.813Z,57.59
2018-09-10T02:09:09.805Z,57.19
2018-09-10T02:10:09.812Z,56.59
2018-09-10T02:11:09.779Z,56.79
2018-09-10T02:12:09.768Z,56.79
2018-09-10T02:13:09.768Z,57.19
2018-09-10T02:14:09.745Z,57.19
2018-09-10T02:15:09.750Z,57.39
2018-09-10T02:16:09.787Z,56.86
2018-09-10T02:17:09.733Z,56.59
2018-09-10T02:18:09.704Z,56.59
2018-09-10T02:19:09.693Z,56.69
2018-09-10T02:20:09.704Z,56.79
2018-09-10T02:21:09.689Z,57.29
2018-09-10T02:22:09.656Z,57.19
2018-09-10T02:23:09.644Z,56.99
2018-09-10T02:24:09.640Z,57.50
2018-09-10T02:25:09.622Z,56.79
2018-09-10T02:26:09.630Z,56.79
2018-09-10T02:27:09.606Z,57.19
2018-09-10T02:28:09.590Z,57.92
2018-09-10T02:29:09.644Z,57.50
2018-09-10T02:30:09.570Z,57.79
2018-09-10T02:31:09.572Z,57.39
2018-09-10T02:32:09.552Z,56.49
2018-09-10T02:33:09.537Z,57.39
2018-09-10T02:34:09.524Z,56.79
2018-09-10T02:35:09.517Z,57.09
2018-09-10T02:36:09.523Z,56.71
2018-09-10T02:37:09.492Z,57.22
2018-09-10T02:38:09.480Z,56.79
2018-09-10T02:39:09.512Z,57.92
2018-09-10T02:40:09.456Z,57.59
2018-09-10T02:41:09.468Z,57.22
2018-09-10T02:42:09.438Z,57.29
2018-09-10T02:43:09.423Z,57.02
2018-09-10T02:44:09.418Z,56.59
2018-09-10T02:45:09.432Z,57.39
2018-09-10T02:46:09.410Z,56.49
2018-09-10T02:47:09.383Z,57.39
2018-09-10T02:48:09.370Z,57.09
2018-09-10T02:49:09.358Z,56.89
2018-09-10T02:50:09.373Z,55.88
2018-09-10T02:51:09.353Z,56.62
2018-09-10T02:52:09.321Z,56.51
2018-09-10T02:53:09.311Z,56.59
2018-09-10T02:54:09.323Z,56.82
2018-09-10T02:55:09.327Z,57.32
2018-09-10T02:56:09.313Z,57.52
2018-09-10T02:57:09.281Z,56.82
2018-09-10T02:58:09.255Z,56.92
2018-09-10T02:59:09.245Z,57.02
2018-09-10T03:00:09.234Z,56.62
2018-09-10T03:01:09.238Z,57.95
2018-09-10T03:02:09.216Z,57.82
2018-09-10T03:03:09.203Z,57.82
2018-09-10T03:04:09.188Z,57.62
2018-09-10T03:05:09.178Z,57.62
2018-09-10T03:06:09.184Z,57.12
2018-09-10T03:07:09.176Z,56.62
2018-09-10T03:08:09.167Z,57.02
2018-09-10T03:09:09.137Z,57.12
2018-09-10T03:10:09.121Z,57.02
2018-09-10T03:11:09.130Z,56.71
2018-09-10T03:12:09.107Z,56.74
2018-09-10T03:13:09.109Z,57.24
2018-09-10T03:14:09.076Z,57.95
2018-09-10T03:15:09.065Z,57.15
2018-09-10T03:16:09.071Z,57.85
2018-09-10T03:17:09.044Z,57.24
2018-09-10T03:18:09.040Z,57.85
2018-09-10T03:19:09.024Z,57.85
2018-09-10T03:20:09.007Z,57.85
2018-09-10T03:21:09.019Z,57.55
2018-09-10T03:22:08.987Z,57.75
2018-09-10T03:23:08.980Z,57.85
2018-09-10T03:24:09.070Z,57.62
2018-09-10T03:25:08.967Z,56.84
2018-09-10T03:26:08.958Z,57.24
2018-09-10T03:27:08.933Z,56.95
2018-09-10T03:28:08.920Z,56.62
2018-09-10T03:29:08.930Z,57.32
2018-09-10T03:30:09.031Z,57.42
2018-09-10T03:31:08.927Z,57.32
2018-09-10T03:32:08.875Z,57.12
2018-09-10T03:33:08.864Z,56.95
2018-09-10T03:34:08.853Z,57.35
2018-09-10T03:35:08.851Z,57.45
2018-09-10T03:36:08.861Z,57.35
2018-09-10T03:37:08.819Z,57.35
2018-09-10T03:38:08.808Z,57.55
2018-09-10T03:39:08.800Z,57.04
2018-09-10T03:40:08.789Z,57.85
2018-09-10T03:41:08.786Z,57.24
2018-09-10T03:42:08.779Z,57.95
2018-09-10T03:43:08.756Z,57.15
2018-09-10T03:44:08.742Z,57.45
2018-09-10T03:45:08.731Z,57.15
2018-09-10T03:46:08.719Z,56.54
2018-09-10T03:47:08.754Z,57.75
2018-09-10T03:48:08.697Z,56.84
2018-09-10T03:49:08.685Z,56.95
2018-09-10T03:50:08.681Z,57.45
2018-09-10T03:51:08.663Z,57.15
2018-09-10T03:52:08.668Z,57.15
2018-09-10T03:53:08.640Z,57.95
2018-09-10T03:54:08.628Z,57.37
2018-09-10T03:55:08.619Z,56.97
2018-09-10T03:56:08.609Z,57.85
2018-09-10T03:57:08.613Z,57.07
2018-09-10T03:58:08.603Z,58.07
2018-09-10T03:59:08.572Z,57.65
2018-09-10T04:00:08.561Z,58.15
2018-09-10T04:01:08.553Z,59.16
2018-09-10T04:02:08.560Z,58.42
2018-09-10T04:03:08.532Z,57.72
2018-09-10T04:04:08.534Z,57.12
2018-09-10T04:05:08.505Z,57.09
2018-09-10T04:06:08.493Z,57.09
2018-09-10T04:07:08.506Z,56.49
2018-09-10T04:08:08.497Z,57.39
2018-09-10T04:09:08.483Z,57.06
2018-09-10T04:10:08.448Z,57.37
2018-09-10T04:11:08.444Z,57.37
2018-09-10T04:12:08.444Z,57.74
2018-09-10T04:13:08.416Z,57.44
2018-09-10T04:14:08.417Z,57.74
2018-09-10T04:15:08.400Z,57.94
2018-09-10T04:16:08.390Z,56.84
2018-09-10T04:17:08.406Z,56.51
2018-09-10T04:18:08.360Z,56.10
2018-09-10T04:19:08.351Z,56.30
2018-09-10T04:20:08.338Z,55.80
2018-09-10T04:21:08.332Z,55.91
2018-09-10T04:22:08.333Z,55.80
2018-09-10T04:23:08.305Z,56.10
2018-09-10T04:24:08.294Z,55.91
2018-09-10T04:25:08.289Z,55.40
2018-09-10T04:26:08.363Z,56.30
2018-09-10T04:27:08.277Z,55.51
2018-09-10T04:28:08.251Z,55.51
2018-09-10T04:29:08.238Z,54.80
2018-09-10T04:30:08.230Z,55.10
2018-09-10T04:31:08.222Z,54.30
2018-09-10T04:32:08.230Z,54.20
2018-09-10T04:33:08.195Z,54.07
2018-09-10T04:34:08.189Z,54.10
2018-09-10T04:35:08.187Z,54.20
2018-09-10T04:36:08.248Z,54.38
2018-09-10T04:37:08.169Z,55.00
2018-09-10T04:38:08.144Z,54.68
2018-09-10T04:39:08.148Z,53.97
2018-09-10T04:40:08.120Z,53.80
2018-09-10T04:41:08.107Z,53.39
2018-09-10T04:42:08.171Z,53.90
2018-09-10T04:43:08.087Z,53.30
2018-09-10T04:44:08.081Z,53.30
2018-09-10T04:45:08.066Z,53.39
2018-09-10T04:46:08.058Z,53.90
2018-09-10T04:47:08.062Z,53.90
2018-09-10T04:48:08.031Z,53.30
2018-09-10T04:49:08.024Z,53.50
2018-09-10T04:50:08.024Z,53.90
2018-09-10T04:51:07.998Z,53.20
2018-09-10T04:52:08.009Z,53.30
2018-09-10T04:53:07.988Z,53.50
2018-09-10T04:54:07.967Z,53.20
2018-09-10T04:55:07.958Z,53.59
2018-09-10T04:56:07.944Z,53.30
2018-09-10T04:57:07.964Z,53.02
2018-09-10T04:58:08.030Z,54.02
2018-09-10T04:59:07.917Z,54.13
2018-09-10T05:00:07.900Z,53.62
2018-09-10T05:01:07.889Z,52.12
2018-09-10T05:02:07.901Z,52.62
2018-09-10T05:03:07.879Z,53.32
2018-09-10T05:04:07.858Z,53.92
2018-09-10T05:05:07.845Z,53.82
2018-09-10T05:06:07.835Z,53.82
2018-09-10T05:07:07.823Z,53.42
2018-09-10T05:08:07.838Z,53.72
2018-09-10T05:09:07.801Z,53.82
2018-09-10T05:10:07.848Z,54.02
2018-09-10T05:11:07.781Z,53.72
2018-09-10T05:12:07.771Z,53.52
2018-09-10T05:13:07.775Z,53.92
2018-09-10T05:14:07.758Z,53.22
2018-09-10T05:15:07.744Z,53.42
2018-09-10T05:16:07.728Z,53.52
2018-09-10T05:17:07.718Z,53.62
2018-09-10T05:18:07.719Z,53.52
2018-09-10T05:19:07.692Z,52.62
2018-09-10T05:20:07.682Z,53.42
2018-09-10T05:21:07.673Z,53.72
2018-09-10T05:22:07.700Z,53.52
2018-09-10T05:23:07.665Z,53.72
2018-09-10T05:24:07.641Z,53.62
2018-09-10T05:25:07.630Z,53.62
2018-09-10T05:26:07.615Z,52.49
2018-09-10T05:27:07.619Z,52.59
2018-09-10T05:28:07.707Z,52.59
2018-09-10T05:29:07.584Z,52.49
2018-09-10T05:30:07.574Z,53.09
2018-09-10T05:31:07.560Z,53.20
2018-09-10T05:32:07.550Z,52.89
2018-09-10T05:33:07.565Z,53.00
2018-09-10T05:34:07.529Z,52.49
2018-09-10T05:35:07.518Z,52.49
2018-09-10T05:36:07.507Z,52.59
2018-09-10T05:37:07.498Z,52.69
2018-09-10T05:38:07.501Z,52.59
2018-09-10T05:39:07.475Z,52.29
2018-09-10T05:40:07.464Z,52.89
2018-09-10T05:41:07.455Z,52.89
2018-09-10T05:42:07.445Z,52.57
2018-09-10T05:43:07.451Z,52.80
2018-09-10T05:44:07.419Z,52.69
2018-09-10T05:45:07.409Z,52.19
2018-09-10T05:46:07.399Z,52.19
2018-09-10T05:47:07.387Z,52.26
2018-09-10T05:48:07.397Z,52.17
2018-09-10T05:49:07.369Z,52.26
2018-09-10T05:50:07.357Z,52.26
2018-09-10T05:51:07.348Z,52.87
2018-09-10T05:52:07.334Z,52.67
2018-09-10T05:53:07.395Z,52.26
2018-09-10T05:54:07.313Z,52.37
2018-09-10T05:55:07.310Z,52.26
2018-09-10T05:56:07.290Z,52.26
2018-09-10T05:57:07.280Z,52.26
2018-09-10T05:58:07.286Z,52.67
2018-09-10T05:59:07.261Z,52.26
2018-09-10T06:00:07.247Z,52.47
2018-09-10T06:01:07.236Z,52.49
2018-09-10T06:02:07.225Z,52.47
2018-09-10T06:03:07.231Z,52.47
2018-09-10T06:04:07.204Z,52.77
2018-09-10T06:05:07.193Z,52.37
2018-09-10T06:06:07.196Z,52.17
2018-09-10T06:07:07.172Z,52.19
2018-09-10T06:08:07.175Z,52.47
2018-09-10T06:09:07.150Z,52.26
2018-09-10T06:10:07.142Z,52.26
2018-09-10T06:11:07.130Z,52.17
2018-09-10T06:12:07.129Z,52.07
2018-09-10T06:13:07.123Z,52.17
2018-09-10T06:14:07.095Z,52.37
2018-09-10T06:15:07.084Z,52.17
2018-09-10T06:16:07.083Z,52.17
2018-09-10T06:17:07.068Z,52.26
2018-09-10T06:18:07.078Z,52.26
2018-09-10T06:19:07.041Z,52.57
2018-09-10T06:20:07.029Z,52.67
2018-09-10T06:21:07.019Z,52.37
2018-09-10T06:22:07.011Z,52.47
2018-09-10T06:23:07.015Z,52.57
2018-09-10T06:24:06.987Z,52.47
2018-09-10T06:25:06.976Z,52.57
2018-09-10T06:26:06.964Z,52.26
2018-09-10T06:27:06.958Z,52.47
2018-09-10T06:28:06.962Z,52.26
2018-09-10T06:29:06.934Z,52.47
2018-09-10T06:30:06.927Z,52.57
2018-09-10T06:31:06.916Z,52.37
2018-09-10T06:32:06.899Z,52.37
2018-09-10T06:33:06.907Z,52.57
2018-09-10T06:34:06.900Z,52.47
2018-09-10T06:35:06.870Z,52.17
2018-09-10T06:36:06.857Z,52.37
2018-09-10T06:37:06.848Z,52.37
2018-09-10T06:38:06.834Z,52.07
2018-09-10T06:39:06.845Z,52.26
2018-09-10T06:40:06.825Z,52.37
2018-09-10T06:41:06.806Z,52.07
2018-09-10T06:42:06.798Z,52.37
2018-09-10T06:43:06.781Z,52.47
2018-09-10T06:44:06.789Z,52.26
2018-09-10T06:45:06.760Z,52.17
2018-09-10T06:46:06.749Z,52.47
2018-09-10T06:47:06.740Z,52.47
2018-09-10T06:48:06.727Z,52.47
2018-09-10T06:49:06.732Z,52.37
2018-09-10T06:50:06.707Z,52.37
2018-09-10T06:51:06.699Z,52.26
2018-09-10T06:52:06.687Z,52.37
2018-09-10T06:53:06.682Z,52.57
2018-09-10T06:54:06.704Z,52.57
2018-09-10T06:55:06.653Z,52.47
2018-09-10T06:56:06.644Z,52.26
2018-09-10T06:57:06.637Z,52.57
2018-09-10T06:58:06.623Z,51.87
2018-09-10T06:59:06.626Z,52.47
2018-09-10T07:00:06.615Z,52.37
2018-09-10T07:01:06.591Z,52.57
2018-09-10T07:02:06.579Z,52.67
2018-09-10T07:03:06.568Z,52.57
2018-09-10T07:04:06.576Z,52.47
2018-09-10T07:05:06.656Z,52.26
2018-09-10T07:06:06.536Z,52.37
2018-09-10T07:07:06.658Z,52.26
2018-09-10T07:08:06.521Z,52.37
2018-09-10T07:09:06.525Z,52.57
2018-09-10T07:10:06.495Z,52.47
2018-09-10T07:11:06.483Z,52.17
2018-09-10T07:12:06.473Z,52.26
2018-09-10T07:13:06.515Z,52.37
2018-09-10T07:14:06.471Z,52.37
2018-09-10T07:15:06.452Z,52.17
2018-09-10T07:16:06.430Z,52.17
2018-09-10T07:17:06.421Z,52.47
2018-09-10T07:18:06.409Z,52.37
2018-09-10T07:19:06.520Z,52.14
2018-09-10T07:20:06.398Z,53.07
2018-09-10T07:21:06.378Z,53.34
2018-09-10T07:22:06.367Z,52.87
2018-09-10T07:23:06.449Z,52.24
2018-09-10T07:24:06.362Z,53.05
2018-09-10T07:25:06.335Z,53.05
2018-09-10T07:26:06.376Z,52.55
2018-09-10T07:27:06.315Z,52.55
2018-09-10T07:28:06.303Z,52.67
2018-09-10T07:29:06.316Z,53.47
2018-09-10T07:30:06.282Z,53.07
2018-09-10T07:31:06.273Z,53.07
2018-09-10T07:32:06.263Z,52.67
2018-09-10T07:33:06.250Z,52.57
2018-09-10T07:34:06.257Z,52.26
2018-09-10T07:35:06.229Z,52.57
2018-09-10T07:36:06.219Z,52.47
2018-09-10T07:37:06.210Z,53.27
2018-09-10T07:38:06.200Z,52.57
2018-09-10T07:39:06.300Z,53.47
2018-09-10T07:40:06.175Z,53.47
2018-09-10T07:41:06.165Z,53.17
2018-09-10T07:42:06.156Z,53.47
2018-09-10T07:43:06.143Z,53.67
2018-09-10T07:44:06.183Z,53.57
2018-09-10T07:45:06.124Z,54.07
2018-09-10T07:46:06.114Z,53.57
2018-09-10T07:47:06.104Z,53.97
2018-09-10T07:48:06.095Z,53.87
2018-09-10T07:49:06.087Z,53.77
2018-09-10T07:50:06.091Z,53.95
2018-09-10T07:51:06.059Z,53.85
2018-09-10T07:52:06.049Z,54.27
2018-09-10T07:53:06.057Z,54.77
2018-09-10T07:54:06.028Z,54.47
2018-09-10T07:55:06.033Z,54.97
2018-09-10T07:56:06.005Z,56.38
2018-09-10T07:57:05.995Z,55.68
2018-09-10T07:58:05.985Z,55.78
2018-09-10T07:59:05.974Z,56.28
2018-09-10T08:00:05.980Z,56.38
2018-09-10T08:01:05.952Z,56.58
2018-09-10T08:02:05.942Z,56.68
2018-09-10T08:03:06.054Z,57.28
2018-09-10T08:04:05.921Z,57.28
2018-09-10T08:05:05.941Z,57.39
2018-09-10T08:06:05.899Z,57.48
2018-09-10T08:07:05.887Z,57.28
2018-09-10T08:08:05.879Z,57.39
2018-09-10T08:09:05.936Z,57.39
2018-09-10T08:10:06.147Z,57.68
2018-09-10T08:11:05.844Z,57.91
2018-09-10T08:12:06.063Z,57.79
2018-09-10T08:13:05.822Z,57.91
2018-09-10T08:14:05.813Z,57.79
2018-09-10T08:15:05.824Z,57.68
2018-09-10T08:16:05.860Z,57.68
2018-09-10T08:17:05.868Z,58.18
2018-09-10T08:18:05.771Z,58.69
2018-09-10T08:19:05.771Z,58.59
2018-09-10T08:20:05.788Z,57.48
2018-09-10T08:21:05.746Z,57.98
2018-09-10T08:22:05.740Z,57.68
2018-09-10T08:23:05.717Z,58.26
2018-09-10T08:24:05.744Z,58.06
2018-09-10T08:25:05.728Z,58.06
2018-09-10T08:26:05.699Z,58.16
2018-09-10T08:27:05.674Z,57.76
2018-09-10T08:28:05.671Z,57.03
2018-09-10T08:29:05.652Z,57.46
2018-09-10T08:30:05.640Z,57.76
2018-09-10T08:31:05.654Z,57.53
2018-09-10T08:32:05.620Z,57.23
2018-09-10T08:33:05.610Z,57.33
2018-09-10T08:34:05.601Z,57.43
2018-09-10T08:35:05.590Z,57.86
2018-09-10T08:36:05.593Z,57.53
2018-09-10T08:37:05.567Z,57.53
2018-09-10T08:38:05.558Z,58.53
2018-09-10T08:39:05.547Z,58.63
2018-09-10T08:40:05.535Z,58.33
2018-09-10T08:41:05.542Z,57.63
2018-09-10T08:42:05.514Z,57.23
2018-09-10T08:43:05.504Z,58.03
2018-09-10T08:44:05.495Z,57.43
2018-09-10T08:45:05.483Z,57.53
2018-09-10T08:46:05.504Z,57.43
2018-09-10T08:47:05.463Z,57.63
2018-09-10T08:48:05.454Z,57.00
2018-09-10T08:49:05.445Z,57.20
2018-09-10T08:50:05.436Z,57.40
2018-09-10T08:51:05.435Z,57.10
2018-09-10T08:52:05.412Z,57.20
2018-09-10T08:53:05.399Z,56.70
2018-09-10T08:54:05.449Z,56.30
2018-09-10T08:55:05.592Z,56.40
2018-09-10T08:56:05.621Z,56.20
2018-09-10T08:57:05.357Z,55.50
2018-09-10T08:58:05.347Z,55.70
2018-09-10T08:59:05.336Z,56.50
2018-09-10T09:00:05.399Z,56.30
2018-09-10T09:01:05.333Z,56.48
2018-09-10T09:02:05.308Z,56.77
2018-09-10T09:03:05.337Z,55.70
2018-09-10T09:04:05.282Z,55.07
2018-09-10T09:05:05.280Z,55.17
2018-09-10T09:06:05.377Z,54.17
2018-09-10T09:07:05.260Z,55.17
2018-09-10T09:08:05.389Z,55.07
2018-09-10T09:09:05.243Z,53.87
2018-09-10T09:10:05.216Z,53.67
2018-09-10T09:11:05.226Z,54.17
2018-09-10T09:12:05.199Z,53.77
2018-09-10T09:13:05.207Z,54.27
2018-09-10T09:14:05.193Z,53.77
2018-09-10T09:15:05.173Z,53.77
2018-09-10T09:16:05.172Z,54.07
2018-09-10T09:17:05.158Z,53.67
2018-09-10T09:18:05.132Z,55.67
2018-09-10T09:19:05.133Z,55.37
2018-09-10T09:20:05.109Z,56.15
2018-09-10T09:21:06.243Z,55.47
2018-09-10T09:22:05.089Z,55.15
2018-09-10T09:23:05.383Z,53.74
2018-09-10T09:24:05.066Z,54.27
2018-09-10T09:25:05.055Z,54.17
2018-09-10T09:26:05.045Z,55.44
2018-09-10T09:27:05.052Z,55.05
2018-09-10T09:28:05.021Z,55.65
2018-09-10T09:29:05.011Z,55.94
2018-09-10T09:30:05.082Z,55.35
2018-09-10T09:31:06.906Z,53.34
2018-09-10T09:32:04.994Z,52.44
2018-09-10T09:33:04.965Z,52.24
2018-09-10T09:34:04.963Z,53.24
2018-09-10T09:35:04.945Z,51.74
2018-09-10T09:36:04.940Z,54.24
2018-09-10T09:37:04.941Z,54.94
2018-09-10T09:38:04.920Z,53.85
2018-09-10T09:39:04.899Z,53.74
2018-09-10T09:40:04.888Z,53.12
2018-09-10T09:41:06.250Z,52.34
2018-09-10T09:42:04.887Z,51.14
2018-09-10T09:43:04.857Z,51.04
2018-09-10T09:44:04.844Z,50.62
2018-09-10T09:45:04.839Z,49.54
2018-09-10T09:46:04.827Z,49.84
2018-09-10T09:47:06.316Z,49.82
2018-09-10T09:48:04.803Z,50.14
2018-09-10T09:49:04.790Z,50.12
2018-09-10T09:50:04.776Z,49.44
2018-09-10T09:51:04.777Z,50.04
2018-09-10T09:52:04.769Z,50.02
2018-09-10T09:53:04.746Z,50.72
2018-09-10T09:54:04.736Z,50.52
2018-09-10T09:55:04.725Z,50.42
2018-09-10T09:56:04.718Z,50.42
2018-09-10T09:57:04.718Z,50.12
2018-09-10T09:58:04.692Z,51.12
2018-09-10T09:59:04.683Z,49.52
2018-09-10T10:00:04.669Z,49.72
2018-09-10T10:01:04.660Z,49.41
2018-09-10T10:02:04.675Z,49.82
2018-09-10T10:03:04.645Z,49.91
2018-09-10T10:04:04.649Z,49.52
2018-09-10T10:05:04.619Z,51.72
2018-09-10T10:06:04.601Z,51.12
2018-09-10T10:07:04.620Z,51.20
2018-09-10T10:08:04.581Z,51.59
2018-09-10T10:09:04.583Z,50.29
2018-09-10T10:10:04.602Z,49.69
2018-09-10T10:11:04.560Z,50.29
2018-09-10T10:12:04.621Z,49.40
2018-09-10T10:13:04.542Z,49.59
2018-09-10T10:14:04.517Z,49.59
2018-09-10T10:15:04.501Z,49.49
2018-09-10T10:16:04.491Z,48.79
2018-09-10T10:17:04.522Z,49.40
2018-09-10T10:18:04.511Z,48.60
2018-09-10T10:19:04.463Z,48.49
2018-09-10T10:20:04.606Z,49.79
2018-09-10T10:21:04.436Z,50.59
2018-09-10T10:22:04.521Z,50.29
2018-09-10T10:23:04.434Z,50.49
2018-09-10T10:24:04.412Z,50.09
2018-09-10T10:25:04.399Z,50.59
2018-09-10T10:26:04.381Z,50.09
2018-09-10T10:27:04.371Z,49.99
2018-09-10T10:28:04.433Z,50.09
2018-09-10T10:29:04.350Z,50.09
2018-09-10T10:30:04.340Z,49.40
2018-09-10T10:31:04.329Z,50.09
2018-09-10T10:32:04.318Z,50.27
2018-09-10T10:33:04.321Z,50.07
2018-09-10T10:34:04.295Z,50.67
2018-09-10T10:35:04.286Z,50.09
2018-09-10T10:36:04.286Z,50.47
2018-09-10T10:37:04.270Z,50.87
2018-09-10T10:38:04.267Z,51.27
2018-09-10T10:39:04.273Z,50.07
2018-09-10T10:40:04.232Z,50.47
2018-09-10T10:41:04.218Z,50.17
2018-09-10T10:42:04.209Z,50.37
2018-09-10T10:43:04.225Z,50.57
2018-09-10T10:44:04.185Z,50.07
2018-09-10T10:45:04.176Z,50.27
2018-09-10T10:46:04.164Z,49.77
2018-09-10T10:47:04.154Z,50.27
2018-09-10T10:48:04.160Z,50.07
2018-09-10T10:49:04.130Z,49.97
2018-09-10T10:50:04.121Z,49.77
2018-09-10T10:51:04.110Z,49.27
2018-09-10T10:52:04.099Z,49.27
2018-09-10T10:53:04.108Z,48.77
2018-09-10T10:54:04.078Z,49.25
2018-09-10T10:55:04.066Z,48.94
2018-09-10T10:56:04.054Z,48.85
2018-09-10T10:57:04.048Z,48.75
2018-09-10T10:58:04.052Z,48.25
2018-09-10T10:59:04.028Z,48.75
2018-09-10T11:00:04.010Z,48.75
2018-09-10T11:01:04.001Z,48.75
2018-09-10T11:02:03.989Z,48.65
2018-09-10T11:03:03.992Z,49.35
2018-09-10T11:04:04.016Z,49.25
2018-09-10T11:05:03.955Z,49.85
2018-09-10T11:06:03.945Z,49.15
2018-09-10T11:07:03.932Z,48.65
2018-09-10T11:08:03.959Z,48.35
2018-09-10T11:09:03.912Z,48.85
2018-09-10T11:10:03.905Z,48.45
2018-09-10T11:11:03.893Z,46.75
2018-09-10T11:12:03.877Z,46.92
2018-09-10T11:13:03.866Z,46.62
2018-09-10T11:14:03.870Z,47.55
2018-09-10T11:15:03.851Z,47.72
2018-09-10T11:16:03.845Z,48.13
2018-09-10T11:17:03.848Z,47.13
2018-09-10T11:18:03.809Z,46.62
2018-09-10T11:19:03.819Z,46.62
2018-09-10T11:20:03.787Z,46.23
2018-09-10T11:21:03.782Z,46.53
2018-09-10T11:22:03.768Z,46.23
2018-09-10T11:23:03.753Z,46.33
2018-09-10T11:24:03.757Z,44.03
2018-09-10T11:25:03.735Z,44.03
2018-09-10T11:26:03.720Z,44.13
2018-09-10T11:27:03.705Z,43.51
2018-09-10T11:28:03.696Z,44.11
2018-09-10T11:29:03.702Z,43.61
2018-09-10T11:30:03.672Z,43.71
2018-09-10T11:31:03.664Z,43.59
2018-09-10T11:32:03.655Z,44.09
2018-09-10T11:33:03.638Z,43.59
2018-09-10T11:34:03.659Z,43.89
2018-09-10T11:35:03.615Z,42.69
2018-09-10T11:36:03.622Z,43.99
2018-09-10T11:37:03.592Z,43.39
2018-09-10T11:38:03.584Z,42.59
2018-09-10T11:39:03.587Z,41.89
2018-09-10T11:40:03.560Z,42.69
2018-09-10T11:41:03.548Z,42.40
2018-09-10T11:42:03.537Z,40.20
2018-09-10T11:43:03.530Z,41.08
2018-09-10T11:44:03.543Z,41.97
2018-09-10T11:45:03.508Z,41.67
2018-09-10T11:46:03.491Z,41.28
2018-09-10T11:47:03.489Z,39.18
2018-09-10T11:48:03.474Z,40.36
2018-09-10T11:49:03.481Z,39.56
2018-09-10T11:50:03.451Z,38.96
2018-09-10T11:51:03.439Z,36.76
2018-09-10T11:52:03.426Z,37.75
2018-09-10T11:53:03.413Z,38.13
2018-09-10T11:54:03.457Z,36.54
2018-09-10T11:55:03.392Z,38.71
2018-09-10T11:56:03.380Z,38.09
2018-09-10T11:57:03.371Z,38.29
2018-09-10T11:58:03.368Z,37.58
2018-09-10T11:59:03.391Z,37.86
2018-09-10T12:00:03.341Z,38.45
2018-09-10T12:01:03.327Z,37.84
2018-09-10T12:02:03.371Z,37.34
2018-09-10T12:03:03.304Z,37.23
2018-09-10T12:04:03.318Z,36.63
2018-09-10T12:05:03.290Z,37.03
2018-09-10T12:06:03.277Z,36.81
2018-09-10T12:07:03.259Z,36.63
2018-09-10T12:08:03.248Z,37.23
2018-09-10T12:09:03.255Z,37.32
2018-09-10T12:10:03.231Z,37.32
2018-09-10T12:11:03.229Z,37.34
2018-09-10T12:12:03.205Z,38.43
2018-09-10T12:13:03.193Z,37.94
2018-09-10T12:14:03.219Z,38.64
2018-09-10T12:15:03.175Z,38.56
2018-09-10T12:16:03.161Z,38.26
2018-09-10T12:17:03.153Z,38.65
2018-09-10T12:18:03.139Z,38.45
2018-09-10T12:19:03.127Z,38.56
2018-09-10T12:20:03.143Z,38.43
2018-09-10T12:21:03.107Z,38.14
2018-09-10T12:22:03.101Z,37.62
2018-09-10T12:23:03.084Z,36.63
2018-09-10T12:24:03.075Z,36.61
2018-09-10T12:25:03.080Z,37.09
2018-09-10T12:26:03.057Z,36.48
2018-09-10T12:27:03.050Z,35.97
2018-09-10T12:28:03.046Z,35.97
2018-09-10T12:29:03.022Z,35.97
2018-09-10T12:30:03.027Z,35.95
2018-09-10T12:31:03.006Z,35.55
2018-09-10T12:32:02.989Z,35.73
2018-09-10T12:33:02.979Z,35.53
2018-09-10T12:34:02.965Z,35.63
2018-09-10T12:35:02.970Z,35.83
2018-09-10T12:36:02.943Z,35.73
2018-09-10T12:37:02.937Z,36.03
2018-09-10T12:38:02.927Z,36.13
2018-09-10T12:39:02.922Z,36.21
2018-09-10T12:40:02.917Z,35.52
2018-09-10T12:41:02.889Z,35.52
2018-09-10T12:42:02.885Z,35.91
2018-09-10T12:43:02.881Z,35.12
2018-09-10T12:44:02.859Z,35.83
2018-09-10T12:45:02.863Z,35.83
2018-09-10T12:46:02.837Z,35.85
2018-09-10T12:47:02.827Z,35.75
2018-09-10T12:48:02.821Z,35.75
2018-09-10T12:49:02.807Z,36.86
2018-09-10T12:50:02.809Z,35.67
2018-09-10T12:51:02.783Z,35.67
2018-09-10T12:52:02.772Z,34.68